Time;durP1;ratioP1;P1;durP2;ratioP2;P2;SDS_P1;SDS_P2;PMS_P1;PMS_P2;Temp;Humidity;BMP_temperature;BMP_pressure;BME280_temperature;BME280_humidity;BME280_pressure;Samples;Min_cycle;Max_cycle;Signal;HPM_P1;HPM_P2
2023/06/08 00:01:40;;;;;;;17.75;12.55;;;461.10;2380.80;;;;;;5030551;28;20030;-57
2023/06/08 00:04:07;;;;;;;16.25;13.25;;;461.10;2380.80;;;;;;5029995;28;20034;-57
2023/06/08 00:06:33;;;;;;;18.00;13.65;;;461.10;2380.80;;;;;;5030114;28;20128;-57
2023/06/08 00:09:01;;;;;;;18.90;13.00;;;461.10;2380.80;;;;;;5030367;28;20069;-60
2023/06/08 00:11:28;;;;;;;18.52;14.05;;;461.10;2380.80;;;;;;5029996;28;20031;-55
2023/06/08 00:13:54;;;;;;;18.50;13.02;;;461.10;2380.80;;;;;;5029971;28;20403;-56
2023/06/08 00:16:24;;;;;;;19.05;13.73;;;461.10;2380.80;;;;;;5029659;28;20116;-55
2023/06/08 00:18:54;;;;;;;19.25;13.65;;;461.10;2380.80;;;;;;5030782;28;20029;-56
2023/06/08 00:21:22;;;;;;;16.42;13.25;;;461.00;2380.80;;;;;;5030376;28;20383;-55
2023/06/08 00:23:48;;;;;;;17.35;14.13;;;460.90;2380.80;;;;;;5030106;28;20041;-58
2023/06/08 00:26:14;;;;;;;15.52;12.82;;;461.00;2380.80;;;;;;5029855;28;20060;-54
2023/06/08 00:28:40;;;;;;;17.15;12.63;;;461.00;2380.80;;;;;;5030320;28;20064;-58
2023/06/08 00:31:06;;;;;;;17.70;13.27;;;461.00;2380.80;;;;;;5029677;28;20056;-56
2023/06/08 00:33:33;;;;;;;19.40;14.10;;;461.00;2380.80;;;;;;5029826;28;20415;-53
2023/06/08 00:35:58;;;;;;;28.52;16.13;;;461.00;2380.80;;;;;;5029984;28;20486;-55
2023/06/08 00:38:24;;;;;;;20.42;13.95;;;461.00;2380.80;;;;;;5030041;28;20033;-56
2023/06/08 00:40:50;;;;;;;19.65;13.48;;;460.90;2380.80;;;;;;5029771;28;20357;-56
2023/06/08 00:43:16;;;;;;;16.42;13.13;;;460.80;2380.80;;;;;;5029319;28;20045;-57
2023/06/08 00:45:41;;;;;;;17.77;13.48;;;460.80;2380.80;;;;;;5029907;28;20507;-56
2023/06/08 00:48:07;;;;;;;16.98;12.98;;;460.80;2380.80;;;;;;5029430;28;20025;-55
2023/06/08 00:50:33;;;;;;;19.20;14.60;;;460.80;2380.80;;;;;;5029509;28;20025;-56
2023/06/08 00:52:59;;;;;;;22.45;15.15;;;460.80;2380.80;;;;;;5029568;28;20037;-57
2023/06/08 00:55:27;;;;;;;25.23;16.63;;;460.80;2380.80;;;;;;5029406;28;20021;-55
2023/06/08 00:57:53;;;;;;;23.83;14.77;;;460.80;2380.80;;;;;;5029710;28;20383;-56
2023/06/08 01:00:20;;;;;;;19.65;14.68;;;460.80;2380.80;;;;;;5029535;28;20021;-56
2023/06/08 01:02:47;;;;;;;21.40;14.80;;;460.80;2380.80;;;;;;5029203;28;20037;-57
2023/06/08 01:05:16;;;;;;;20.02;14.90;;;436.10;2355.20;;;;;;5029199;28;20038;-55
2023/06/08 01:08:04;;;;;;;18.63;15.00;;;436.10;2355.20;;;;;;5029339;28;20477;-54
2023/06/08 01:10:53;;;;;;;16.02;13.80;;;436.10;2355.20;;;;;;5029273;28;20499;-58
2023/06/08 01:14:04;;;;;;;20.45;14.50;;;436.10;2355.20;;;;;;5019110;28;20091;-53
2023/06/08 01:16:33;;;;;;;20.95;14.52;;;436.00;2355.20;;;;;;5027170;28;20533;-54
2023/06/08 01:19:10;;;;;;;22.67;13.93;;;436.00;2355.20;;;;;;5027194;28;20136;-54
2023/06/08 01:22:00;;;;;;;23.58;15.10;;;436.00;2355.20;;;;;;5026655;28;20192;-58
2023/06/08 01:24:30;;;;;;;17.70;13.40;;;436.00;2355.20;;;;;;5026713;28;20372;-55
2023/06/08 01:26:59;;;;;;;20.20;14.15;;;436.00;2355.20;;;;;;5026269;28;20160;-54
2023/06/08 01:29:33;;;;;;;21.95;13.82;;;436.00;2355.20;;;;;;5026947;28;20053;-54
2023/06/08 01:31:59;;;;;;;16.60;13.73;;;436.10;2355.20;;;;;;5026705;28;20049;-54
2023/06/08 01:34:26;;;;;;;17.33;14.55;;;436.00;2355.20;;;;;;5026621;28;20045;-59
2023/06/08 01:37:09;;;;;;;19.40;15.07;;;436.10;2355.20;;;;;;5026841;28;20056;-58
2023/06/08 01:39:55;;;;;;;19.27;14.65;;;436.10;2355.20;;;;;;5026510;28;20038;-55
2023/06/08 01:42:24;;;;;;;20.52;14.70;;;436.10;2355.20;;;;;;5026643;28;20045;-55
2023/06/08 01:45:12;;;;;;;16.83;13.13;;;436.00;2355.20;;;;;;5026465;28;20033;-55
2023/06/08 01:47:56;;;;;;;21.23;15.50;;;436.00;2355.20;;;;;;5017137;28;20026;-57
2023/06/08 01:50:23;;;;;;;16.00;13.35;;;435.90;2355.20;;;;;;5029058;28;20543;-56
2023/06/08 01:52:49;;;;;;;17.48;13.73;;;435.90;2355.20;;;;;;5028927;28;20463;-55
2023/06/08 01:55:19;;;;;;;20.73;14.80;;;435.90;2355.20;;;;;;5028623;28;20068;-55
2023/06/08 01:57:45;;;;;;;17.13;13.48;;;435.90;2355.20;;;;;;5028447;28;20044;-59
2023/06/08 02:00:20;;;;;;;19.02;14.35;;;435.90;2355.20;;;;;;5028784;28;20479;-58
2023/06/08 02:02:46;;;;;;;19.58;14.00;;;435.90;2355.20;;;;;;5014796;28;20053;-55
2023/06/08 02:05:14;;;;;;;21.50;14.25;;;435.90;2355.20;;;;;;5028926;28;20037;-54
2023/06/08 02:07:41;;;;;;;17.98;13.27;;;435.80;2355.20;;;;;;5028535;28;20036;-54
2023/06/08 02:10:09;;;;;;;15.95;12.88;;;435.80;2355.20;;;;;;5028597;28;20113;-58
2023/06/08 02:12:35;;;;;;;17.05;13.55;;;435.70;2355.20;;;;;;5028174;28;20479;-56
2023/06/08 02:15:01;;;;;;;17.65;13.05;;;435.80;2355.20;;;;;;5024441;28;20080;-53
2023/06/08 02:17:33;;;;;;;17.17;13.05;;;435.60;2355.20;;;;;;5008991;28;20073;-58
2023/06/08 02:20:00;;;;;;;19.25;13.73;;;;;;;;;;5008910;28;20021;-54
2023/06/08 02:22:30;;;;;;;23.20;16.25;;;;;;;;;;5008677;28;20507;-55
2023/06/08 02:24:56;;;;;;;18.73;14.55;;;;;;;;;;5008470;28;20117;-55
2023/06/08 02:27:22;;;;;;;19.63;15.02;;;;;;;;;;5009162;28;20029;-59
2023/06/08 02:29:48;;;;;;;21.90;14.38;;;;;;;;;;5008627;28;20022;-55
2023/06/08 02:32:14;;;;;;;18.13;14.43;;;;;;;;;;5008471;28;20034;-54
2023/06/08 02:34:40;;;;;;;17.55;14.65;;;;;;;;;;5008720;28;20018;-54
2023/06/08 02:37:06;;;;;;;17.70;13.35;;;;;;;;;;5008430;28;20041;-55
2023/06/08 02:39:32;;;;;;;20.20;14.88;;;;;;;;;;5011682;28;20146;-57
2023/06/08 02:41:58;;;;;;;15.15;13.30;;;;;;;;;;5011866;28;20088;-55
2023/06/08 02:44:24;;;;;;;20.50;14.18;;;;;;;;;;5030393;28;20023;-58
2023/06/08 02:46:51;;;;;;;18.10;13.95;;;;;;;;;;5031904;28;20065;-53
2023/06/08 02:49:17;;;;;;;21.85;14.02;;;;;;;;;;5031742;28;20108;-56
2023/06/08 02:51:43;;;;;;;17.42;13.60;;;;;;;;;;5032001;28;20069;-55
2023/06/08 02:54:09;;;;;;;18.38;14.20;;;;;;;;;;5031616;28;20025;-55
2023/06/08 02:56:35;;;;;;;16.48;12.85;;;;;;;;;;5031469;28;20056;-54
2023/06/08 02:59:02;;;;;;;17.05;13.15;;;;;;;;;;5031273;28;20033;-53
2023/06/08 03:01:30;;;;;;;19.00;14.88;;;;;;;;;;5030657;28;20103;-54
2023/06/08 03:03:56;;;;;;;20.75;15.70;;;;;;;;;;5031641;28;20030;-54
2023/06/08 03:06:22;;;;;;;27.30;14.10;;;;;;;;;;5031513;28;20033;-54
2023/06/08 03:08:55;;;;;;;19.50;14.25;;;;;;;;;;5031263;28;20030;-58
2023/06/08 03:11:22;;;;;;;16.55;13.57;;;;;;;;;;5031696;28;20025;-58
2023/06/08 03:13:48;;;;;;;18.05;14.63;;;;;;;;;;5017694;28;20147;-54
2023/06/08 03:16:15;;;;;;;18.77;13.50;;;;;;;;;;5031386;28;20144;-58
2023/06/08 03:18:41;;;;;;;19.05;14.40;;;;;;;;;;5031324;28;20071;-54
2023/06/08 03:21:08;;;;;;;20.42;14.00;;;;;;;;;;5031766;28;20092;-59
2023/06/08 03:23:38;;;;;;;21.00;13.35;;;;;;;;;;5031243;28;20032;-58
2023/06/08 03:26:04;;;;;;;20.58;14.65;;;;;;;;;;5031022;28;20368;-55
2023/06/08 03:28:30;;;;;;;20.65;14.68;;;;;;;;;;5031004;28;20014;-56
2023/06/08 03:30:56;;;;;;;19.08;16.38;;;;;;;;;;5031250;28;20101;-57
2023/06/08 03:33:23;;;;;;;17.88;14.00;;;;;;;;;;5031190;28;20037;-55
2023/06/08 03:35:50;;;;;;;18.38;14.82;;;;;;;;;;5031203;28;20025;-55
2023/06/08 03:38:16;;;;;;;21.60;14.70;;;;;;;;;;5031061;28;20033;-54
2023/06/08 03:40:42;;;;;;;17.13;14.02;;;;;;;;;;5031045;28;20022;-59
2023/06/08 03:43:08;;;;;;;17.05;14.43;;;;;;;;;;5030806;28;20063;-58
2023/06/08 03:45:34;;;;;;;17.95;13.65;;;;;;;;;;5030918;28;20075;-54
2023/06/08 03:48:00;;;;;;;20.83;14.68;;;;;;;;;;5030981;28;20018;-55
2023/06/08 03:50:26;;;;;;;21.02;15.27;;;;;;;;;;5030662;28;20171;-54
2023/06/08 03:52:52;;;;;;;20.40;14.82;;;;;;;;;;5030793;28;20746;-54
2023/06/08 03:55:18;;;;;;;19.92;14.30;;;;;;;;;;5030641;28;20025;-55
2023/06/08 03:57:45;;;;;;;16.55;13.75;;;;;;;;;;5030365;28;20471;-55
2023/06/08 04:00:11;;;;;;;19.27;13.60;;;;;;;;;;5030773;28;20033;-54
2023/06/08 04:02:38;;;;;;;16.27;13.32;;;;;;;;;;5030547;28;20021;-54
2023/06/08 04:05:06;;;;;;;17.10;13.23;;;;;;;;;;5030286;28;20029;-56
2023/06/08 04:07:34;;;;;;;15.40;12.95;;;;;;;;;;5030038;28;20033;-59
2023/06/08 04:10:01;;;;;;;14.65;12.63;;;;;;;;;;5030410;28;20069;-55
2023/06/08 04:12:27;;;;;;;18.10;13.02;;;;;;;;;;5029934;28;20037;-56
2023/06/08 04:14:53;;;;;;;16.52;13.25;;;;;;;;;;5029805;28;20028;-55
2023/06/08 04:17:19;;;;;;;17.58;13.23;;;;;;;;;;5030581;28;20407;-56
2023/06/08 04:19:45;;;;;;;18.60;12.43;;;;;;;;;;5029704;28;20029;-53
2023/06/08 04:22:11;;;;;;;16.48;13.35;;;;;;;;;;5030517;28;20030;-60
2023/06/08 04:24:38;;;;;;;16.10;13.88;;;;;;;;;;5029358;28;20029;-54
2023/06/08 04:27:06;;;;;;;14.48;11.27;;;;;;;;;;5030009;28;20030;-55
2023/06/08 04:29:32;;;;;;;13.52;12.02;;;;;;;;;;5029730;28;20545;-51
2023/06/08 04:31:58;;;;;;;18.90;13.23;;;;;;;;;;5029833;28;20043;-52
2023/06/08 04:34:24;;;;;;;16.92;12.80;;;;;;;;;;5029788;28;20038;-52
2023/06/08 04:36:51;;;;;;;19.67;14.30;;;;;;;;;;5029978;28;20164;-59
2023/06/08 04:39:17;;;;;;;24.02;19.30;;;;;;;;;;5028610;28;20443;-58
2023/06/08 04:41:45;;;;;;;22.08;13.40;;;;;;;;;;5029852;28;20077;-57
2023/06/08 04:44:13;;;;;;;16.48;12.98;;;;;;;;;;5029811;28;20079;-56
2023/06/08 04:46:39;;;;;;;15.48;12.50;;;;;;;;;;5016708;28;20045;-56
2023/06/08 04:49:05;;;;;;;16.25;11.63;;;;;;;;;;5023732;28;20113;-55
2023/06/08 04:51:31;;;;;;;15.38;12.82;;;;;;;;;;5026356;28;20488;-70
2023/06/08 04:53:59;;;;;;;16.30;12.35;;;614.40;2432.00;;;;;;5029141;28;20098;-69
2023/06/08 04:56:29;;;;;;;14.48;13.00;;;;;;;;;;5029829;28;20075;-56
2023/06/08 04:58:56;;;;;;;14.43;12.93;;;;;;;;;;5029205;28;20057;-56
2023/06/08 05:01:23;;;;;;;14.82;13.23;;;;;;;;;;5029070;28;20460;-72
2023/06/08 05:03:49;;;;;;;17.90;13.95;;;615.10;2432.00;;;;;;5029508;28;20035;-55
2023/06/08 05:06:15;;;;;;;16.80;12.27;;;640.10;2432.00;;;;;;5029229;28;20029;-55
2023/06/08 05:08:41;;;;;;;19.15;14.18;;;640.80;2380.80;;;;;;5029246;28;20071;-72
2023/06/08 05:11:08;;;;;;;14.35;12.85;;;665.70;2355.20;;;;;;5029402;28;20057;-56
2023/06/08 05:13:34;;;;;;;14.85;12.40;;;;;;;;;;5029058;28;20048;-57
2023/06/08 05:16:00;;;;;;;15.88;13.70;;;742.70;2073.60;;;;;;5029313;28;20375;-56
2023/06/08 05:18:26;;;;;;;14.48;12.18;;;742.40;2073.60;;;;;;5029446;28;20108;-70
2023/06/08 05:20:52;;;;;;;14.13;12.75;;;768.00;1971.20;;;;;;5029391;28;20052;-56
2023/06/08 05:23:17;;;;;;;15.38;12.65;;;793.60;1894.40;;;;;;5028916;28;20060;-56
2023/06/08 05:25:43;;;;;;;17.80;14.32;;;768.90;1868.80;;;;;;5028965;28;20022;-59
2023/06/08 05:28:09;;;;;;;15.82;12.77;;;844.90;1766.40;;;;;;5029103;28;20519;-74
2023/06/08 05:30:35;;;;;;;18.45;14.20;;;820.10;1740.80;;;;;;5028827;28;20028;-67
2023/06/08 05:33:01;;;;;;;14.07;12.77;;;819.30;1766.40;;;;;;5028883;28;20108;-56
2023/06/08 05:35:27;;;;;;;15.73;12.55;;;820.00;1740.80;;;;;;5029094;28;20064;-58
2023/06/08 05:37:53;;;;;;;14.18;12.77;;;871.20;1612.80;;;;;;5028734;28;20037;-57
2023/06/08 05:40:19;;;;;;;15.30;13.65;;;922.00;1510.40;;;;;;5028742;28;20024;-56
2023/06/08 05:42:45;;;;;;;21.27;13.45;;;921.90;1536.00;;;;;;5028547;28;20125;-62
2023/06/08 05:45:11;;;;;;;15.30;13.70;;;922.20;1484.80;;;;;;5029028;28;20463;-56
2023/06/08 05:47:37;;;;;;;18.00;15.38;;;921.70;1510.40;;;;;;5028540;28;20069;-58
2023/06/08 05:50:04;;;;;;;19.35;14.52;;;;;;;;;;5028652;28;20491;-56
2023/06/08 05:52:30;;;;;;;16.50;14.57;;;922.40;1484.80;;;;;;5028766;28;20084;-56
2023/06/08 05:54:56;;;;;;;13.35;12.07;;;;;;;;;;5028544;28;20499;-74
2023/06/08 05:57:22;;;;;;;17.63;13.48;;;973.20;1408.00;;;;;;5028999;28;20036;-57
2023/06/08 05:59:48;;;;;;;15.73;13.88;;;973.40;1382.40;;;;;;5029054;28;20022;-57
2023/06/08 06:02:14;;;;;;;15.27;13.70;;;1024.20;1331.20;;;;;;5028571;28;20018;-73
2023/06/08 06:04:40;;;;;;;16.08;14.13;;;1024.30;1305.60;;;;;;5028797;28;20464;-75
2023/06/08 06:07:06;;;;;;;18.63;14.73;;;999.30;1331.20;;;;;;5028324;28;20427;-74
2023/06/08 06:09:32;;;;;;;16.48;14.55;;;1024.10;1305.60;;;;;;5028672;28;20025;-58
2023/06/08 06:11:58;;;;;;;18.27;15.02;;;1049.60;1280.00;;;;;;5028521;28;20029;-67
2023/06/08 06:14:24;;;;;;;17.05;14.50;;;1024.00;1305.60;;;;;;5032045;28;20079;-57
2023/06/08 06:16:49;;;;;;;19.05;15.73;;;973.10;1356.80;;;;;;5032470;28;20049;-73
2023/06/08 06:19:15;;;;;;;17.85;15.95;;;948.10;1382.40;;;;;;5032773;28;20434;-69
2023/06/08 06:21:40;;;;;;;16.98;15.38;;;972.80;1408.00;;;;;;5032360;28;20026;-68
2023/06/08 06:24:06;;;;;;;16.50;14.77;;;947.80;1382.40;;;;;;5019291;28;20460;-57
2023/06/08 06:26:32;;;;;;;17.15;15.40;;;999.20;1331.20;;;;;;5032459;28;20029;-76
2023/06/08 06:28:58;;;;;;;17.10;15.60;;;999.10;1331.20;;;;;;5031916;28;20498;-57
2023/06/08 06:31:23;;;;;;;26.73;18.08;;;1024.10;1305.60;;;;;;5032179;28;20028;-60
2023/06/08 06:33:49;;;;;;;18.15;16.35;;;1024.10;1305.60;;;;;;5032165;28;20040;-76
2023/06/08 06:36:15;;;;;;;17.83;16.15;;;1075.80;1203.20;;;;;;5032018;28;20040;-58
2023/06/08 06:38:41;;;;;;;19.55;17.50;;;1101.20;1203.20;;;;;;5032076;28;20028;-75
2023/06/08 06:41:06;;;;;;;19.80;17.92;;;1024.60;1280.00;;;;;;5031905;28;20411;-77
2023/06/08 06:43:32;;;;;;;22.60;19.08;;;1049.70;1280.00;;;;;;5031919;28;20037;-57
2023/06/08 06:45:58;;;;;;;21.88;19.55;;;973.00;1382.40;;;;;;5032328;28;20026;-68
2023/06/08 06:48:24;;;;;;;21.02;18.88;;;972.90;1382.40;;;;;;5031890;28;20436;-58
2023/06/08 06:50:50;;;;;;;23.83;19.05;;;947.80;1408.00;;;;;;5031969;28;20430;-75
2023/06/08 06:53:16;;;;;;;21.13;18.77;;;947.70;1382.40;;;;;;5031442;28;20025;-61
2023/06/08 06:55:42;;;;;;;21.75;18.98;;;999.30;1331.20;;;;;;5032060;28;20112;-60
2023/06/08 06:58:08;;;;;;;21.13;18.77;;;1024.60;1305.60;;;;;;5031785;28;20029;-56
2023/06/08 07:00:37;;;;;;;22.00;17.90;;;1049.80;1280.00;;;;;;5031399;28;20018;-57
2023/06/08 07:03:07;;;;;;;21.92;17.48;;;947.40;1433.60;;;;;;5019133;28;20091;-61
2023/06/08 07:05:33;;;;;;;20.08;17.98;;;947.80;1382.40;;;;;;5031719;28;20022;-61
2023/06/08 07:07:59;;;;;;;17.25;15.55;;;973.70;1331.20;;;;;;5031731;28;20053;-57
2023/06/08 07:10:25;;;;;;;22.23;16.40;;;998.70;1356.80;;;;;;5031272;28;20053;-57
2023/06/08 07:12:51;;;;;;;18.08;16.33;;;973.30;1382.40;;;;;;5031413;28;20041;-57
2023/06/08 07:15:18;;;;;;;24.40;17.85;;;973.60;1356.80;;;;;;5030983;28;20113;-58
2023/06/08 07:17:45;;;;;;;21.55;17.05;;;922.00;1459.20;;;;;;5031250;28;20021;-56
2023/06/08 07:20:12;;;;;;;26.60;17.17;;;947.90;1382.40;;;;;;5031331;28;20032;-56
2023/06/08 07:22:37;;;;;;;18.38;16.20;;;998.50;1382.40;;;;;;5031620;28;20419;-57
2023/06/08 07:25:04;;;;;;;21.55;19.30;;;1075.40;1280.00;;;;;;5030803;28;20021;-58
2023/06/08 07:27:30;;;;;;;19.25;17.38;;;;;;;;;;5031013;28;20370;-70
2023/06/08 07:29:56;;;;;;;20.10;18.23;;;998.80;1356.80;;;;;;5030895;28;20468;-59
2023/06/08 07:32:22;;;;;;;18.38;16.50;;;1024.70;1280.00;;;;;;5031426;28;20049;-69
2023/06/08 07:34:48;;;;;;;19.38;17.52;;;1050.00;1280.00;;;;;;5031406;28;20048;-74
2023/06/08 07:37:14;;;;;;;18.92;16.88;;;973.10;1382.40;;;;;;5031012;28;20490;-57
2023/06/08 07:39:40;;;;;;;20.52;18.70;;;973.00;1408.00;;;;;;5031219;28;20367;-57
2023/06/08 07:42:06;;;;;;;19.98;18.02;;;973.70;1356.80;;;;;;5030521;28;20099;-57
2023/06/08 07:44:31;;;;;;;20.38;18.17;;;1024.40;1305.60;;;;;;5030836;28;20032;-57
2023/06/08 07:46:57;;;;;;;19.40;17.42;;;998.70;1382.40;;;;;;5030729;28;20026;-59
2023/06/08 07:49:23;;;;;;;21.95;18.88;;;998.50;1356.80;;;;;;5030647;28;20021;-59
2023/06/08 07:51:50;;;;;;;20.52;18.63;;;973.20;1408.00;;;;;;5031319;28;20048;-59
2023/06/08 07:54:19;;;;;;;20.20;18.30;;;998.80;1356.80;;;;;;5030680;28;20044;-57
2023/06/08 07:56:46;;;;;;;19.55;17.30;;;998.60;1382.40;;;;;;5030725;28;20371;-71
2023/06/08 07:59:12;;;;;;;22.52;18.83;;;1050.00;1280.00;;;;;;5030767;28;20383;-71
2023/06/08 08:01:38;;;;;;;19.77;17.15;;;1049.70;1305.60;;;;;;5030576;28;20104;-73
2023/06/08 08:04:03;;;;;;;19.80;15.82;;;998.60;1356.80;;;;;;5030300;28;20029;-57
2023/06/08 08:06:29;;;;;;;19.02;17.00;;;973.10;1382.40;;;;;;5030503;28;20400;-57
2023/06/08 08:08:55;;;;;;;20.67;18.13;;;973.70;1356.80;;;;;;5030131;28;20026;-56
2023/06/08 08:11:21;;;;;;;20.60;18.80;;;998.80;1382.40;;;;;;5030550;28;20022;-57
2023/06/08 08:13:47;;;;;;;19.98;17.85;;;922.10;1459.20;;;;;;5029927;28;20045;-57
2023/06/08 08:16:12;;;;;;;20.85;17.90;;;922.40;1459.20;;;;;;5030325;28;20033;-57
2023/06/08 08:18:38;;;;;;;19.25;17.15;;;922.30;1484.80;;;;;;5030502;28;20482;-56
2023/06/08 08:21:04;;;;;;;24.23;19.25;;;870.70;1587.20;;;;;;5030050;28;20495;-56
2023/06/08 08:23:29;;;;;;;20.88;17.67;;;870.50;1612.80;;;;;;5030071;28;20025;-64
2023/06/08 08:25:55;;;;;;;20.52;18.38;;;819.30;1689.60;;;;;;5027959;28;20537;-58
2023/06/08 08:28:21;;;;;;;21.77;18.38;;;794.00;1792.00;;;;;;5029459;28;20123;-55
2023/06/08 08:30:46;;;;;;;18.60;16.48;;;794.10;1792.00;;;;;;5029844;28;20380;-64
2023/06/08 08:33:13;;;;;;;18.80;17.00;;;;;;;;;;5029815;28;20083;-56
2023/06/08 08:35:39;;;;;;;18.50;16.13;;;;;;;;;;5029321;28;20547;-58
2023/06/08 08:38:05;;;;;;;21.50;19.17;;;;;;;;;;5029548;28;20476;-57
2023/06/08 08:40:31;;;;;;;19.80;17.70;;;;;;;;;;5029874;28;20017;-57
2023/06/08 08:43:23;;;;;;;19.33;16.85;;;793.60;1817.60;;;;;;5028724;28;20056;-70
2023/06/08 08:45:50;;;;;;;21.77;18.98;;;768.40;1843.20;;;;;;5029655;28;20025;-58
2023/06/08 08:48:19;;;;;;;19.42;17.52;;;;;;;;;;5029547;28;20026;-57
2023/06/08 08:50:49;;;;;;;19.33;17.42;;;;;;;;;;5029190;28;20064;-57
2023/06/08 08:53:16;;;;;;;19.25;16.58;;;;;;;;;;5029034;28;20041;-57
2023/06/08 08:55:48;;;;;;;20.02;18.02;;;;;;;;;;5029600;28;20022;-62
2023/06/08 08:58:18;;;;;;;19.75;17.45;;;;;;;;;;5029231;28;20083;-61
2023/06/08 09:00:50;;;;;;;18.45;16.83;;;;;;;;;;5028989;28;20022;-56
2023/06/08 09:03:16;;;;;;;20.05;18.05;;;;;;;;;;5028913;28;20089;-57
2023/06/08 09:05:45;;;;;;;18.23;16.33;;;819.80;1792.00;;;;;;5029117;28;20092;-56
2023/06/08 09:08:12;;;;;;;18.80;16.73;;;;;;;;;;5029196;28;20083;-57
2023/06/08 09:10:38;;;;;;;18.98;17.13;;;820.10;1740.80;;;;;;5029430;28;20022;-57
2023/06/08 09:13:04;;;;;;;19.95;17.20;;;794.40;1792.00;;;;;;5028841;28;20040;-57
2023/06/08 09:15:36;;;;;;;18.40;16.00;;;794.40;1817.60;;;;;;5029341;28;20029;-62
2023/06/08 09:18:15;;;;;;;16.50;14.85;;;;;;;;;;5028754;28;20037;-58
2023/06/08 09:20:41;;;;;;;23.17;16.10;;;794.30;1817.60;;;;;;5029094;28;20040;-65
2023/06/08 09:23:16;;;;;;;16.70;15.10;;;794.30;1817.60;;;;;;5028782;28;20025;-59
2023/06/08 09:25:42;;;;;;;17.85;15.75;;;794.50;1817.60;;;;;;5029036;28;20372;-57
2023/06/08 09:28:31;;;;;;;24.30;17.30;;;794.30;1792.00;;;;;;5029284;28;20026;-57
2023/06/08 09:30:59;;;;;;;22.55;17.67;;;;;;;;;;5028177;28;20025;-63
2023/06/08 09:33:26;;;;;;;20.92;16.95;;;;;;;;;;5028637;28;20040;-57
2023/06/08 09:35:58;;;;;;;24.27;17.38;;;;;;;;;;5028946;28;20506;-72
2023/06/08 09:38:27;;;;;;;18.38;16.67;;;;;;;;;;5029166;28;20801;-57
2023/06/08 09:41:12;;;;;;;18.00;16.30;;;;;;;;;;5028875;28;20030;-58
2023/06/08 09:43:38;;;;;;;18.35;16.65;;;;;;;;;;5028787;28;20038;-57
2023/06/08 09:46:04;;;;;;;16.42;14.70;;;819.60;1817.60;;;;;;5027013;28;20022;-57
2023/06/08 09:48:29;;;;;;;17.33;15.35;;;793.70;1817.60;;;;;;5032749;28;20025;-57
2023/06/08 09:51:02;;;;;;;17.67;15.30;;;793.80;1817.60;;;;;;5032928;28;20022;-56
2023/06/08 09:53:32;;;;;;;19.65;15.48;;;794.10;1766.40;;;;;;5032800;28;20129;-57
2023/06/08 09:55:59;;;;;;;15.32;13.73;;;794.20;1766.40;;;;;;5033317;28;20097;-56
2023/06/08 09:58:26;;;;;;;15.68;13.82;;;794.40;1766.40;;;;;;5032341;28;20393;-57
2023/06/08 10:01:00;;;;;;;16.15;14.55;;;768.70;1843.20;;;;;;5020584;28;20062;-57
2023/06/08 10:03:33;;;;;;;18.52;14.85;;;768.00;1868.80;;;;;;5020004;28;20025;-55
2023/06/08 10:05:59;;;;;;;;;;;;;;;;;;5033132;28;20033;-56
2023/06/08 10:08:25;;;;;;;16.05;14.52;;;;;;;;;;5032676;28;20352;-56
2023/06/08 10:10:51;;;;;;;15.75;14.10;;;;;;;;;;5032750;28;20013;-56
2023/06/08 10:13:18;;;;;;;18.00;14.05;;;;;;;;;;5031718;28;20069;-56
2023/06/08 10:15:44;;;;;;;17.10;14.23;;;;;;;;;;5032444;28;20022;-58
2023/06/08 10:18:11;;;;;;;17.85;14.52;;;;;;;;;;5032525;28;20430;-60
2023/06/08 10:20:37;;;;;;;21.80;14.57;;;;;;;;;;5032301;28;20075;-57
2023/06/08 10:23:04;;;;;;;14.73;13.23;;;;;;;;;;5032473;28;20153;-56
2023/06/08 10:25:30;;;;;;;15.35;13.77;;;;;;;;;;5032510;28;20021;-57
2023/06/08 10:28:03;;;;;;;20.15;14.95;;;;;;;;;;5032483;28;20038;-57
2023/06/08 10:30:39;;;;;;;16.00;14.35;;;;;;;;;;5032413;28;20060;-56
2023/06/08 10:33:16;;;;;;;14.88;13.48;;;;;;;;;;5032004;28;20479;-56
2023/06/08 10:35:43;;;;;;;16.92;12.57;;;;;;;;;;5018966;28;20037;-63
2023/06/08 10:38:14;;;;;;;14.50;13.00;;;;;;;;;;5031296;28;20033;-56
2023/06/08 10:40:43;;;;;;;18.13;13.98;;;743.20;1817.60;;;;;;5032310;28;20025;-58
2023/06/08 10:43:08;;;;;;;16.15;14.13;;;743.30;1843.20;;;;;;5031640;28;20042;-57
2023/06/08 10:45:39;;;;;;;15.60;14.05;;;768.10;1894.40;;;;;;5032099;28;20379;-57
2023/06/08 10:48:09;;;;;;;15.68;13.98;;;768.30;1817.60;;;;;;5031874;28;20030;-57
2023/06/08 10:50:41;;;;;;;14.52;13.07;;;768.40;1843.20;;;;;;5031787;28;20021;-60
2023/06/08 10:53:07;;;;;;;14.18;12.98;;;768.60;1792.00;;;;;;5021801;28;20124;-58
2023/06/08 10:55:33;;;;;;;14.48;12.18;;;768.40;1792.00;;;;;;5032081;28;20183;-57
2023/06/08 10:58:16;;;;;;;14.52;13.13;;;768.10;1843.20;;;;;;5031722;28;20460;-62
2023/06/08 11:00:42;;;;;;;;;;;742.80;1868.80;;;;;;5031850;28;20032;-57
2023/06/08 11:03:10;;;;;;;15.80;14.13;;;;;;;;;;5031479;28;19908;-56
2023/06/08 11:05:38;;;;;;;14.48;12.98;;;742.60;1868.80;;;;;;5030124;28;20037;-60
2023/06/08 11:08:07;;;;;;;14.43;13.02;;;;;;;;;;5031400;28;20032;-57
2023/06/08 11:10:33;;;;;;;14.48;13.05;;;;;;;;;;5018670;28;20025;-58
2023/06/08 11:13:12;;;;;;;15.32;12.88;;;742.50;1894.40;;;;;;5018690;28;20033;-57
2023/06/08 11:15:43;;;;;;;15.70;14.10;;;742.50;1894.40;;;;;;5031479;28;20071;-57
2023/06/08 11:18:10;;;;;;;15.05;13.50;;;717.60;1894.40;;;;;;5031309;28;20108;-61
2023/06/08 11:20:38;;;;;;;20.52;16.65;;;717.30;1945.60;;;;;;5030936;28;20475;-56
2023/06/08 11:23:11;;;;;;;15.40;13.82;;;742.40;1945.60;;;;;;5031075;28;20499;-58
2023/06/08 11:25:38;;;;;;;15.60;13.35;;;742.80;1971.20;;;;;;5031180;28;20021;-58
2023/06/08 11:28:07;;;;;;;15.68;13.38;;;743.00;1894.40;;;;;;5030976;28;20074;-59
2023/06/08 11:30:33;;;;;;;13.40;12.07;;;743.10;1894.40;;;;;;5031205;28;20596;-58
2023/06/08 11:33:00;;;;;;;13.90;12.45;;;742.90;1894.40;;;;;;5030847;28;20384;-58
2023/06/08 11:35:26;;;;;;;15.27;13.45;;;742.40;1945.60;;;;;;5031208;28;20025;-59
2023/06/08 11:37:59;;;;;;;14.93;13.57;;;742.90;1996.80;;;;;;5030274;28;20049;-57
2023/06/08 11:40:26;;;;;;;14.63;13.18;;;742.90;1920.00;;;;;;5031016;28;20017;-58
2023/06/08 11:42:52;;;;;;;13.90;12.40;;;743.00;1920.00;;;;;;5030215;28;20514;-58
2023/06/08 11:45:18;;;;;;;14.05;11.98;;;768.10;1894.40;;;;;;5030742;28;20037;-58
2023/06/08 11:47:45;;;;;;;14.05;12.27;;;743.30;1868.80;;;;;;5030453;28;20029;-66
2023/06/08 11:50:12;;;;;;;18.90;13.30;;;743.10;1894.40;;;;;;5031167;28;20099;-58
2023/06/08 11:52:42;;;;;;;13.82;12.43;;;742.70;1920.00;;;;;;5031279;28;20037;-57
2023/06/08 11:55:13;;;;;;;17.40;13.07;;;743.30;1894.40;;;;;;5030900;28;20033;-58
2023/06/08 11:57:44;;;;;;;16.45;11.43;;;742.80;1945.60;;;;;;5030849;28;20025;-57
2023/06/08 12:00:16;;;;;;;13.50;12.13;;;743.10;1843.20;;;;;;5030643;28;20025;-57
2023/06/08 12:02:45;;;;;;;13.40;11.35;;;742.80;1920.00;;;;;;5030508;28;20079;-58
2023/06/08 12:05:25;;;;;;;13.40;11.10;;;743.00;1920.00;;;;;;5030723;28;20034;-57
2023/06/08 12:07:58;;;;;;;13.32;10.60;;;743.10;1894.40;;;;;;5030228;28;20029;-56
2023/06/08 12:10:30;;;;;;;;;;;743.10;1894.40;;;;;;5030975;28;20033;-70
2023/06/08 12:12:56;;;;;;;14.27;11.52;;;743.30;1920.00;;;;;;5029757;28;19940;-68
2023/06/08 12:15:22;;;;;;;12.90;10.93;;;742.90;1894.40;;;;;;5014955;28;20025;-63
2023/06/08 12:17:47;;;;;;;62.25;18.02;;;717.70;1920.00;;;;;;5009368;28;20030;-73
2023/06/08 12:20:17;;;;;;;14.25;11.00;;;742.80;1945.60;;;;;;5009599;28;20094;-58
2023/06/08 12:22:43;;;;;;;15.07;10.43;;;742.70;1920.00;;;;;;5009867;28;20640;-60
2023/06/08 12:25:09;;;;;;;11.25;10.15;;;743.00;1920.00;;;;;;5009618;28;20110;-57
2023/06/08 12:27:37;;;;;;;14.68;10.65;;;742.90;1894.40;;;;;;5010810;28;20048;-58
2023/06/08 12:30:08;;;;;;;13.70;10.80;;;742.40;1920.00;;;;;;5029567;28;20021;-58
2023/06/08 12:32:34;;;;;;;10.45;8.85;;;742.40;1945.60;;;;;;5029619;28;20052;-57
2023/06/08 12:35:00;;;;;;;10.73;9.63;;;742.40;1894.40;;;;;;5029373;28;20113;-67
2023/06/08 12:37:27;;;;;;;9.75;8.75;;;717.40;1894.40;;;;;;5029891;28;20382;-61
2023/06/08 12:39:53;;;;;;;13.93;9.73;;;717.30;1894.40;;;;;;5030115;28;20160;-58
2023/06/08 12:42:20;;;;;;;13.93;8.15;;;717.70;1894.40;;;;;;5029286;28;20037;-72
2023/06/08 12:44:47;;;;;;;13.50;9.43;;;717.70;1894.40;;;;;;5029455;28;20029;-66